Time;durP1;ratioP1;P1;durP2;ratioP2;P2;SDS_P1;SDS_P2;PMS_P1;PMS_P2;Temp;Humidity;BMP_temperature;BMP_pressure;BME280_temperature;BME280_humidity;BME280_pressure;Samples;Min_cycle;Max_cycle;Signal;HPM_P1;HPM_P2
2022/02/08 00:01:47;;;;;;;72.82;55.33;;;23.80;92.20;;;;;;1884786;75;21843;-82
2022/02/08 00:04:12;;;;;;;68.35;52.78;;;23.90;92.60;;;;;;1879626;74;21663;-83
2022/02/08 00:06:46;;;;;;;68.28;51.23;;;23.90;92.10;;;;;;1879871;74;21183;-83
2022/02/08 00:09:19;;;;;;;63.23;49.93;;;24.00;92.30;;;;;;1881550;74;21051;-83
2022/02/08 00:11:50;;;;;;;69.67;53.80;;;24.00;92.10;;;;;;1877115;75;21147;-83
2022/02/08 00:14:21;;;;;;;66.30;52.67;;;24.00;92.00;;;;;;1878488;75;21672;-83
2022/02/08 00:16:52;;;;;;;67.50;49.50;;;24.20;92.10;;;;;;1887945;75;21155;-82
2022/02/08 00:19:22;;;;;;;80.30;60.10;;;24.20;91.90;;;;;;1797125;77;21667;-83
2022/02/08 00:21:58;;;;;;;77.17;57.38;;;24.30;92.20;;;;;;1886423;75;21107;-82
2022/02/08 00:24:25;;;;;;;78.00;59.42;;;24.30;92.10;;;;;;1880491;74;21123;-81
2022/02/08 00:26:56;;;;;;;80.40;56.95;;;24.30;92.40;;;;;;1881616;76;21253;-82
2022/02/08 00:29:30;;;;;;;80.00;57.93;;;24.30;92.60;;;;;;1883078;74;21126;-82
2022/02/08 00:32:01;;;;;;;74.35;56.80;;;24.30;92.40;;;;;;1859920;75;21219;-84
2022/02/08 00:34:31;;;;;;;64.67;53.52;;;24.30;92.30;;;;;;1887425;75;21638;-85
2022/02/08 00:37:03;;;;;;;76.22;55.28;;;24.30;92.20;;;;;;1880490;75;21204;-85
2022/02/08 00:39:37;;;;;;;68.05;55.17;;;24.40;92.20;;;;;;1879832;74;21135;-84
2022/02/08 00:42:11;;;;;;;74.12;53.02;;;24.40;92.10;;;;;;1867592;75;21578;-84
2022/02/08 00:44:51;;;;;;;65.47;51.48;;;24.50;92.00;;;;;;1889790;74;21619;-84
2022/02/08 00:47:26;;;;;;;68.92;48.95;;;24.60;91.90;;;;;;1889313;74;21164;-84
2022/02/08 00:49:49;;;;;;;65.78;49.63;;;24.60;91.80;;;;;;1882763;75;21249;-83
2022/02/08 00:52:20;;;;;;;64.53;48.13;;;24.60;91.80;;;;;;1881276;75;21159;-84
2022/02/08 00:54:51;;;;;;;66.07;47.78;;;24.70;91.60;;;;;;1866203;74;21136;-83
2022/02/08 00:57:22;;;;;;;61.65;47.33;;;24.80;91.70;;;;;;1890660;75;21154;-83
2022/02/08 00:59:54;;;;;;;67.45;48.68;;;24.80;91.70;;;;;;1889354;75;21113;-83
2022/02/08 01:02:28;;;;;;;58.00;46.92;;;24.80;91.70;;;;;;1878323;75;21055;-83
2022/02/08 01:05:01;;;;;;;57.38;46.88;;;24.90;91.60;;;;;;1877602;75;21193;-83
2022/02/08 01:07:30;;;;;;;56.28;48.87;;;24.90;91.30;;;;;;1881667;74;21115;-82
2022/02/08 01:10:02;;;;;;;61.58;47.38;;;24.90;91.20;;;;;;1881272;75;21199;-83
2022/02/08 01:12:36;;;;;;;59.42;48.68;;;25.00;91.20;;;;;;1891207;74;21823;-82
2022/02/08 01:15:13;;;;;;;60.15;48.63;;;25.00;91.20;;;;;;1881263;75;21172;-83
2022/02/08 01:17:46;;;;;;;64.85;49.83;;;25.00;91.10;;;;;;1874845;75;21111;-82
2022/02/08 01:20:22;;;;;;;56.10;48.68;;;25.10;91.10;;;;;;1884920;75;21077;-83
2022/02/08 01:22:50;;;;;;;60.78;48.17;;;25.10;91.10;;;;;;1888164;75;21194;-83
2022/02/08 01:25:29;;;;;;;57.13;47.75;;;25.20;90.90;;;;;;1842613;75;21655;-82
2022/02/08 01:27:59;;;;;;;62.23;48.13;;;25.20;90.70;;;;;;1855743;75;21126;-70
2022/02/08 01:30:30;;;;;;;60.28;45.75;;;25.30;90.70;;;;;;1840132;75;21183;-72
2022/02/08 01:36:08;;;;;;;57.50;47.53;;;25.30;90.50;;;;;;1876909;74;21437;-70
2022/02/08 01:38:14;;;;;;;56.90;44.15;;;25.40;90.50;;;;;;1879583;75;21599;-70
2022/02/08 01:43:38;;;;;;;58.95;44.35;;;25.50;90.00;;;;;;1878260;76;21135;-70
2022/02/08 01:48:28;;;;;;;53.68;43.25;;;25.60;89.90;;;;;;1880492;75;21080;-70
2022/02/08 01:50:42;;;;;;;49.73;42.65;;;25.60;89.30;;;;;;1857872;76;21770;-70
2022/02/08 01:53:13;;;;;;;49.80;41.65;;;25.70;88.80;;;;;;1879458;76;21512;-70
2022/02/08 01:55:44;;;;;;;51.05;41.90;;;25.70;88.60;;;;;;1878985;76;21147;-70
2022/02/08 01:58:16;;;;;;;48.70;42.17;;;25.80;88.30;;;;;;1882833;74;21614;-70
2022/02/08 02:00:46;;;;;;;47.43;41.15;;;25.90;87.90;;;;;;1855235;75;21757;-72
2022/02/08 02:03:17;;;;;;;48.80;40.92;;;25.90;87.40;;;;;;1887698;75;21806;-72
2022/02/08 02:05:49;;;;;;;50.05;40.95;;;26.00;87.30;;;;;;1873265;74;21186;-71
2022/02/08 02:08:21;;;;;;;50.80;39.92;;;26.00;86.90;;;;;;1893796;75;21107;-71
2022/02/08 02:10:52;;;;;;;43.83;37.63;;;26.10;86.70;;;;;;1898357;75;21087;-72
2022/02/08 02:13:41;;;;;;;47.78;39.35;;;26.20;85.90;;;;;;1890182;74;21172;-71
2022/02/08 02:15:55;;;;;;;45.80;39.90;;;26.20;85.50;;;;;;1833593;75;21199;-71
2022/02/08 02:18:26;;;;;;;52.78;39.75;;;26.30;85.20;;;;;;1893256;74;21692;-71
2022/02/08 02:20:57;;;;;;;48.05;39.55;;;26.30;84.80;;;;;;1888320;75;21183;-70
2022/02/08 02:23:28;;;;;;;45.92;37.65;;;26.50;84.60;;;;;;1894268;75;21273;-71
2022/02/08 02:26:00;;;;;;;48.45;36.42;;;26.50;84.30;;;;;;1898874;75;21134;-71
2022/02/08 02:28:33;;;;;;;47.17;36.95;;;26.60;83.90;;;;;;1910125;75;21084;-71
2022/02/08 02:31:02;;;;;;;43.63;35.75;;;26.70;83.40;;;;;;1885349;74;21570;-72
2022/02/08 02:33:34;;;;;;;49.10;35.80;;;26.70;83.10;;;;;;1886552;75;21107;-71
2022/02/08 02:36:07;;;;;;;42.13;33.53;;;26.80;81.80;;;;;;1880100;74;21548;-71
2022/02/08 02:38:38;;;;;;;47.03;34.48;;;26.90;81.70;;;;;;1896284;74;21567;-72
2022/02/08 02:41:08;;;;;;;40.35;31.95;;;27.00;80.20;;;;;;1886408;74;21644;-73
2022/02/08 02:43:40;;;;;;;42.13;34.40;;;27.10;79.80;;;;;;1828355;77;21128;-73
2022/02/08 02:46:12;;;;;;;45.05;36.03;;;27.20;79.00;;;;;;1887475;74;21217;-73
2022/02/08 02:48:43;;;;;;;48.55;38.42;;;27.30;78.50;;;;;;1882072;75;21638;-72
2022/02/08 02:51:15;;;;;;;40.90;35.73;;;27.40;78.70;;;;;;1871467;76;21159;-72
2022/02/08 02:53:47;;;;;;;40.60;32.00;;;27.50;78.50;;;;;;1869055;76;21143;-72
2022/02/08 02:56:17;;;;;;;35.50;29.72;;;27.60;78.10;;;;;;1882966;74;21617;-72
2022/02/08 02:58:50;;;;;;;32.93;26.48;;;27.70;77.60;;;;;;1879820;74;21112;-72
2022/02/08 03:01:37;;;;;;;33.13;25.50;;;27.80;75.00;;;;;;1873495;74;21157;-72
2022/02/08 03:19:07;;;;;;;33.15;25.15;;;28.30;72.70;;;;;;1891259;74;21598;-71
2022/02/08 03:21:38;;;;;;;31.40;24.27;;;28.40;71.60;;;;;;1851498;76;21147;-71
2022/02/08 03:24:09;;;;;;;33.23;25.12;;;28.50;71.40;;;;;;1882044;74;21163;-71
2022/02/08 03:26:40;;;;;;;33.38;25.55;;;28.60;72.00;;;;;;1874872;75;21099;-72
2022/02/08 03:29:11;;;;;;;33.15;24.75;;;28.70;71.30;;;;;;1886863;75;21602;-72
2022/02/08 03:31:42;;;;;;;30.97;25.45;;;28.80;70.50;;;;;;1887247;75;21076;-72
2022/02/08 03:34:13;;;;;;;27.22;24.23;;;28.90;69.50;;;;;;1901773;74;21437;-71
2022/02/08 03:36:44;;;;;;;31.15;26.77;;;29.00;70.40;;;;;;1892996;74;21095;-71
2022/02/08 03:39:19;;;;;;;29.57;25.23;;;29.00;70.00;;;;;;1902949;75;21104;-71
2022/02/08 03:41:51;;;;;;;29.37;24.57;;;29.10;69.70;;;;;;1880661;75;21435;-71
2022/02/08 03:44:23;;;;;;;30.25;24.55;;;29.20;69.10;;;;;;1887342;75;21630;-71
2022/02/08 03:46:51;;;;;;;28.92;23.57;;;29.40;68.10;;;;;;1888117;74;21610;-71
2022/02/08 03:49:23;;;;;;;31.12;24.32;;;29.40;68.30;;;;;;1885928;75;21127;-72
2022/02/08 03:51:58;;;;;;;29.87;24.02;;;29.50;68.20;;;;;;1885430;75;21535;-72
2022/02/08 03:54:26;;;;;;;33.00;26.25;;;29.60;67.60;;;;;;1893859;74;21535;-72
2022/02/08 03:56:57;;;;;;;31.42;22.77;;;29.70;67.70;;;;;;1887885;75;21650;-72
2022/02/08 03:59:28;;;;;;;30.05;24.63;;;29.80;66.70;;;;;;1886902;74;21277;-73
2022/02/08 04:07:09;;;;;;;32.55;25.70;;;30.10;66.20;;;;;;1841014;76;21606;-72
2022/02/08 04:09:34;;;;;;;28.35;24.15;;;30.10;65.30;;;;;;1858595;76;21685;-72
2022/02/08 04:12:13;;;;;;;28.75;23.18;;;30.30;65.10;;;;;;1885441;74;21215;-72
2022/02/08 04:15:17;;;;;;;27.62;23.20;;;30.50;64.80;;;;;;1895772;74;21639;-73
2022/02/08 04:32:42;;;;;;;24.23;20.57;;;30.90;69.30;;;;;;1893706;74;21187;-80
2022/02/08 04:37:52;;;;;;;23.47;19.23;;;31.00;61.70;;;;;;1892473;75;21119;-80
2022/02/08 04:50:14;;;;;;;23.83;19.82;;;31.30;59.50;;;;;;1888453;75;21646;-81
2022/02/08 04:52:44;;;;;;;25.45;21.20;;;31.30;59.80;;;;;;1883688;75;21122;-82
2022/02/08 05:34:17;;;;;;;23.27;20.20;;;31.90;57.90;;;;;;1890362;74;21160;-82
2022/02/08 05:41:46;;;;;;;23.05;20.60;;;31.70;58.10;;;;;;1900327;73;21203;-82
2022/02/08 05:44:23;;;;;;;;;;;;;;;;;;;;;
2022/02/08 05:46:56;;;;;;;21.75;19.50;;;31.50;59.30;;;;;;1883622;74;21607;-82
2022/02/08 05:52:22;;;;;;;26.55;22.62;;;31.40;59.70;;;;;;1864905;75;21130;-82
2022/02/08 05:54:32;;;;;;;24.80;19.62;;;31.40;59.50;;;;;;1887571;74;21137;-81
2022/02/08 05:57:02;;;;;;;18.57;14.73;;;31.40;58.30;;;;;;1893123;74;21132;-82
2022/02/08 05:59:33;;;;;;;19.15;15.43;;;31.50;56.00;;;;;;1867352;74;21172;-82
2022/02/08 06:02:04;;;;;;;22.77;19.07;;;31.70;55.60;;;;;;1906582;74;21102;-82
2022/02/08 06:04:37;;;;;;;19.37;16.30;;;31.90;55.90;;;;;;1913651;74;21079;-81
2022/02/08 06:07:19;;;;;;;21.05;18.32;;;32.00;56.10;;;;;;1868316;76;21191;-82
2022/02/08 06:09:56;;;;;;;;;;;32.10;56.00;;;;;;1776324;79;21172;-82
2022/02/08 06:12:28;;;;;;;21.50;19.25;;;32.10;55.80;;;;;;1788112;79;20198;-82
2022/02/08 06:15:28;;;;;;;23.97;19.10;;;32.10;56.40;;;;;;1890320;75;21588;-82
2022/02/08 06:18:05;;;;;;;21.35;18.23;;;32.00;56.70;;;;;;1809491;77;21199;-81
2022/02/08 06:20:53;;;;;;;;;;;;;;;;;;;;;
2022/02/08 06:23:41;;;;;;;20.57;17.50;;;31.60;57.10;;;;;;1851387;76;21089;-82
2022/02/08 06:26:33;;;;;;;22.07;17.85;;;31.60;56.00;;;;;;1839214;77;21163;-72
2022/02/08 06:29:14;;;;;;;23.67;18.37;;;31.60;56.60;;;;;;1884436;75;21159;-72
2022/02/08 06:32:07;;;;;;;19.90;17.90;;;31.60;57.40;;;;;;1809621;76;21064;-74
2022/02/08 06:35:01;;;;;;;20.15;17.95;;;31.50;58.00;;;;;;1851259;75;21235;-74
2022/02/08 06:37:41;;;;;;;20.30;18.07;;;31.50;57.70;;;;;;1853896;75;21229;-73
2022/02/08 06:40:13;;;;;;;25.30;18.50;;;31.50;57.30;;;;;;1896181;74;21085;-73
2022/02/08 06:42:45;;;;;;;20.43;17.85;;;31.60;57.10;;;;;;1899528;74;21149;-73
2022/02/08 06:45:17;;;;;;;23.47;18.20;;;31.70;56.50;;;;;;1906935;73;21631;-72
2022/02/08 06:47:51;;;;;;;21.05;17.50;;;31.90;56.40;;;;;;1902886;73;21151;-72
2022/02/08 06:50:20;;;;;;;18.45;16.55;;;32.00;56.90;;;;;;1887895;74;21190;-72
2022/02/08 06:52:51;;;;;;;18.23;16.32;;;32.00;56.10;;;;;;1899264;74;21066;-72
2022/02/08 06:55:25;;;;;;;19.00;16.95;;;32.10;56.20;;;;;;1901119;74;21742;-72
2022/02/08 06:58:02;;;;;;;25.55;20.23;;;32.20;55.90;;;;;;1899571;74;21710;-72
2022/02/08 07:00:32;;;;;;;21.45;19.23;;;32.30;55.70;;;;;;1894620;74;21147;-72
2022/02/08 07:03:04;;;;;;;25.43;18.37;;;32.30;56.70;;;;;;1902383;74;21197;-73
2022/02/08 07:05:35;;;;;;;18.40;16.60;;;32.20;56.40;;;;;;1902066;73;21677;-73
2022/02/08 07:08:06;;;;;;;21.87;16.00;;;32.10;55.10;;;;;;1919490;74;21188;-72
2022/02/08 07:10:39;;;;;;;19.20;17.30;;;32.00;55.80;;;;;;1899884;73;21255;-71
2022/02/08 07:13:11;;;;;;;20.17;18.07;;;31.90;55.60;;;;;;1912322;73;21592;-72
2022/02/08 07:15:41;;;;;;;20.50;15.15;;;31.80;55.60;;;;;;1901685;75;21571;-72
2022/02/08 07:18:12;;;;;;;19.70;16.27;;;31.90;55.00;;;;;;1905596;74;21155;-72
2022/02/08 07:20:43;;;;;;;20.12;14.93;;;32.00;54.80;;;;;;1893639;73;21178;-72
2022/02/08 07:23:14;;;;;;;20.37;16.62;;;32.00;53.90;;;;;;1896926;75;21093;-71
2022/02/08 07:25:48;;;;;;;18.98;16.12;;;32.10;54.30;;;;;;1901807;73;21093;-71
2022/02/08 07:28:17;;;;;;;17.90;14.73;;;32.00;54.70;;;;;;1867184;75;21101;-72
2022/02/08 07:30:48;;;;;;;17.10;14.38;;;32.10;54.50;;;;;;1827202;77;21720;-72
2022/02/08 07:33:19;;;;;;;17.67;15.08;;;32.20;54.50;;;;;;1915530;74;21125;-73
2022/02/08 07:36:03;;;;;;;17.27;14.28;;;32.30;54.50;;;;;;1902978;74;21165;-73
2022/02/08 07:38:28;;;;;;;15.88;14.00;;;32.40;54.80;;;;;;1890669;74;21183;-72
2022/02/08 07:43:30;;;;;;;16.55;13.90;;;32.20;53.80;;;;;;1874378;75;21120;-72
2022/02/08 07:46:05;;;;;;;16.52;13.83;;;32.20;54.10;;;;;;1841614;75;21976;-73
2022/02/08 07:48:37;;;;;;;15.88;12.75;;;32.10;54.00;;;;;;1846749;75;21178;-71
2022/02/08 07:51:09;;;;;;;17.05;13.32;;;32.20;53.50;;;;;;1844474;76;21436;-72
2022/02/08 07:53:41;;;;;;;20.70;12.90;;;32.30;54.10;;;;;;1827532;78;21187;-72
2022/02/08 07:56:27;;;;;;;15.80;13.03;;;32.40;53.70;;;;;;1833352;76;21147;-72
2022/02/08 07:58:55;;;;;;;19.25;12.78;;;32.50;53.00;;;;;;1878794;75;21131;-72
2022/02/08 08:01:25;;;;;;;20.45;15.23;;;32.60;53.90;;;;;;1869999;75;21135;-72
2022/02/08 08:03:57;;;;;;;18.45;16.48;;;32.60;55.30;;;;;;1875404;75;21583;-72
2022/02/08 08:06:28;;;;;;;24.98;17.65;;;32.60;53.20;;;;;;1933941;73;21233;-72
2022/02/08 08:08:58;;;;;;;18.07;15.65;;;32.70;51.70;;;;;;1923227;73;21211;-72
2022/02/08 08:11:36;;;;;;;18.30;15.80;;;32.70;51.40;;;;;;1909831;73;21692;-73
2022/02/08 08:14:03;;;;;;;18.00;16.20;;;32.80;51.50;;;;;;1919680;73;21605;-72
2022/02/08 08:19:20;;;;;;;16.67;14.87;;;32.80;51.20;;;;;;1892800;74;21069;-72
2022/02/08 08:21:39;;;;;;;15.55;13.85;;;32.60;52.30;;;;;;1862543;76;21679;-72
2022/02/08 08:24:10;;;;;;;19.40;15.15;;;32.60;52.90;;;;;;1905084;74;21183;-72
2022/02/08 08:26:42;;;;;;;17.20;14.70;;;32.50;54.00;;;;;;1900112;73;21794;-73
2022/02/08 08:29:12;;;;;;;16.62;14.83;;;32.40;54.90;;;;;;1902903;73;21132;-72
2022/02/08 08:31:43;;;;;;;19.62;16.00;;;32.40;54.90;;;;;;1910880;73;21165;-72
2022/02/08 08:34:14;;;;;;;19.42;16.00;;;32.30;54.70;;;;;;1898798;73;21130;-72
2022/02/08 08:36:47;;;;;;;20.12;17.92;;;32.20;54.90;;;;;;1934009;73;21108;-71
2022/02/08 08:39:21;;;;;;;19.67;17.17;;;32.20;55.10;;;;;;1922849;74;21167;-71
2022/02/08 08:42:06;;;;;;;19.10;16.45;;;32.20;54.70;;;;;;1905106;74;21232;-72
2022/02/08 08:51:59;;;;;;;17.52;15.63;;;32.20;54.00;;;;;;1904464;73;21107;-72
2022/02/08 08:54:31;;;;;;;17.42;15.05;;;32.20;53.50;;;;;;1921033;73;22362;-72
2022/02/08 08:57:02;;;;;;;16.45;14.75;;;32.20;53.40;;;;;;1927584;73;21115;-72
2022/02/08 08:59:33;;;;;;;17.55;14.95;;;32.30;53.10;;;;;;1935010;74;21065;-72
2022/02/08 09:02:04;;;;;;;15.60;14.00;;;32.30;51.20;;;;;;1908790;73;21548;-71
2022/02/08 09:04:40;;;;;;;17.50;15.53;;;32.30;52.20;;;;;;1906927;74;21057;-72
2022/02/08 09:07:07;;;;;;;19.00;16.75;;;32.30;54.30;;;;;;1904494;74;21137;-72
2022/02/08 09:09:42;;;;;;;21.70;18.35;;;32.20;55.30;;;;;;1901961;75;21211;-72
2022/02/08 09:30:03;;;;;;;22.00;17.65;;;32.00;57.10;;;;;;1909414;73;21077;-72
2022/02/08 09:32:41;;;;;;;21.23;17.02;;;32.00;57.10;;;;;;1903579;74;21660;-73
2022/02/08 09:34:58;;;;;;;19.05;16.15;;;32.00;57.00;;;;;;1906501;74;21112;-73
2022/02/08 09:37:29;;;;;;;20.15;17.90;;;31.90;56.30;;;;;;1930697;73;21563;-72
2022/02/08 09:40:00;;;;;;;22.27;17.10;;;31.90;56.70;;;;;;1910163;72;21207;-72
2022/02/08 09:42:32;;;;;;;18.17;16.20;;;31.80;57.10;;;;;;1902800;74;21195;-73
2022/02/08 09:45:06;;;;;;;24.65;17.85;;;31.70;57.00;;;;;;1903313;74;21549;-73
2022/02/08 09:47:46;;;;;;;22.73;16.97;;;31.60;57.30;;;;;;1891624;74;21198;-74
2022/02/08 09:50:19;;;;;;;21.70;17.15;;;31.60;57.40;;;;;;1859374;75;21525;-72
2022/02/08 09:52:47;;;;;;;16.75;14.13;;;31.60;57.40;;;;;;1889279;75;21183;-72
2022/02/08 09:55:14;;;;;;;18.48;15.90;;;31.50;54.90;;;;;;1904498;74;21072;-73
2022/02/08 09:57:45;;;;;;;21.50;16.80;;;31.50;55.80;;;;;;1854167;75;21141;-73
2022/02/08 10:00:17;;;;;;;23.52;19.77;;;31.50;56.90;;;;;;1846100;78;21123;-74
2022/02/08 10:02:48;;;;;;;22.35;18.23;;;31.40;57.20;;;;;;1852660;75;21231;-74
2022/02/08 10:05:20;;;;;;;26.25;20.45;;;31.40;57.20;;;;;;1854704;76;21528;-74
2022/02/08 10:07:50;;;;;;;24.92;20.77;;;31.40;57.50;;;;;;1865752;76;21166;-73
2022/02/08 10:10:23;;;;;;;21.23;16.80;;;31.30;57.70;;;;;;1843772;76;21130;-73
2022/02/08 10:23:06;;;;;;;23.05;17.42;;;31.10;58.70;;;;;;1898208;73;21065;-74
2022/02/08 10:28:13;;;;;;;19.32;16.65;;;31.00;58.70;;;;;;1890054;73;21504;-73
2022/02/08 10:38:19;;;;;;;20.25;17.60;;;30.90;59.00;;;;;;1895332;74;21107;-73
2022/02/08 10:40:51;;;;;;;45.58;19.87;;;30.80;59.00;;;;;;1890469;73;21594;-74
2022/02/08 10:43:21;;;;;;;25.62;17.05;;;30.80;59.10;;;;;;1884184;73;21253;-74
2022/02/08 10:45:52;;;;;;;21.10;16.60;;;30.80;59.00;;;;;;1898378;73;21243;-75
2022/02/08 10:48:25;;;;;;;20.23;16.87;;;30.70;59.00;;;;;;1894248;74;21592;-74
2022/02/08 10:50:57;;;;;;;21.82;16.17;;;30.70;58.90;;;;;;1892092;74;21111;-73
2022/02/08 10:53:37;;;;;;;21.60;16.85;;;30.60;59.00;;;;;;1896198;74;21665;-73
2022/02/08 10:56:06;;;;;;;21.37;16.07;;;30.60;59.10;;;;;;1892176;74;21674;-75
2022/02/08 10:58:37;;;;;;;20.62;17.02;;;30.60;59.20;;;;;;1894615;73;21172;-75
2022/02/08 11:01:16;;;;;;;21.60;18.23;;;30.50;59.40;;;;;;1890951;74;21315;-73
2022/02/08 11:03:45;;;;;;;22.87;17.52;;;30.60;59.70;;;;;;1899692;74;21145;-83
2022/02/08 11:16:32;;;;;;;22.85;19.52;;;30.40;60.20;;;;;;1897224;73;22086;-85
2022/02/08 11:24:11;;;;;;;26.73;22.55;;;30.30;61.20;;;;;;1896584;74;21228;-84
2022/02/08 11:26:44;;;;;;;25.25;20.80;;;30.30;61.30;;;;;;1895530;74;21187;-85
2022/02/08 11:29:20;;;;;;;32.35;24.47;;;30.20;61.30;;;;;;1902208;74;21124;-85
2022/02/08 11:31:53;;;;;;;27.37;22.60;;;30.20;61.60;;;;;;1895793;75;21527;-85
2022/02/08 11:40:12;;;;;;;26.17;21.00;;;30.00;62.00;;;;;;1933949;74;21085;-85
2022/02/08 11:42:55;;;;;;;27.40;21.42;;;30.00;62.20;;;;;;1884877;73;21690;-85
2022/02/08 11:50:03;;;;;;;25.88;20.35;;;30.00;62.70;;;;;;1897595;74;21608;-85
2022/02/08 12:00:33;;;;;;;24.77;20.65;;;29.90;63.00;;;;;;1936081;74;21187;-85
2022/02/08 12:02:51;;;;;;;26.68;21.77;;;29.80;63.00;;;;;;1932176;74;21128;-84
2022/02/08 12:07:44;;;;;;;27.67;21.42;;;29.80;63.40;;;;;;1899162;74;21112;-85
2022/02/08 12:10:35;;;;;;;27.65;22.58;;;29.80;63.50;;;;;;1883455;75;21199;-85
2022/02/08 12:13:07;;;;;;;32.05;24.82;;;29.70;63.60;;;;;;1882262;75;21198;-85
2022/02/08 12:49:08;;;;;;;33.63;27.58;;;29.40;66.00;;;;;;1891663;74;21178;-85
2022/02/08 12:54:03;;;;;;;31.55;27.05;;;29.30;66.30;;;;;;1841976;77;21231;-85
2022/02/08 12:56:33;;;;;;;32.80;26.80;;;29.30;66.50;;;;;;1894615;74;21150;-85
2022/02/08 13:01:43;;;;;;;36.53;28.77;;;29.30;66.50;;;;;;1930693;74;21804;-84
2022/02/08 13:04:08;;;;;;;35.88;28.23;;;29.30;67.10;;;;;;1877350;74;21403;-85
2022/02/08 14:18:25;;;;;;;38.15;29.30;;;28.90;69.80;;;;;;1908456;74;21200;-84
2022/02/08 14:23:27;;;;;;;41.10;31.33;;;28.80;70.60;;;;;;1916081;74;21293;-85
2022/02/08 14:25:59;;;;;;;42.53;30.70;;;28.80;71.40;;;;;;1885374;74;21574;-85
2022/02/08 15:08:50;;;;;;;38.35;27.40;;;28.40;77.20;;;;;;1906684;74;21201;-84
2022/02/08 15:11:32;;;;;;;41.10;28.52;;;28.40;77.30;;;;;;1914781;74;21151;-85
2022/02/08 15:13:58;;;;;;;33.05;27.32;;;28.40;77.70;;;;;;1866248;75;21152;-85
2022/02/08 15:16:35;;;;;;;35.83;28.75;;;28.40;77.90;;;;;;1855088;76;21167;-85
2022/02/08 15:18:59;;;;;;;39.80;28.92;;;28.40;78.70;;;;;;1923509;74;21119;-85
2022/02/08 15:21:33;;;;;;;35.38;28.38;;;28.40;78.10;;;;;;1911287;73;21176;-85
2022/02/08 15:24:02;;;;;;;41.53;30.00;;;28.40;78.50;;;;;;1912895;73;21189;-85
2022/02/08 15:26:33;;;;;;;38.45;31.00;;;28.40;78.60;;;;;;1906829;74;21105;-85
2022/02/08 15:29:07;;;;;;;39.15;31.80;;;28.30;78.10;;;;;;1897761;73;21156;-86
2022/02/08 15:31:38;;;;;;;49.20;33.85;;;28.30;77.00;;;;;;1912509;74;21148;-85
2022/02/08 15:34:11;;;;;;;45.20;33.67;;;28.30;77.10;;;;;;1932771;74;21234;-86
2022/02/08 15:36:42;;;;;;;42.10;32.08;;;28.30;76.90;;;;;;1906755;74;21124;-85
2022/02/08 15:39:12;;;;;;;46.18;33.42;;;28.30;77.50;;;;;;1855788;75;22110;-84
2022/02/08 15:41:45;;;;;;;43.20;33.95;;;28.30;77.70;;;;;;1891458;74;21116;-86
2022/02/08 15:44:21;;;;;;;43.15;32.67;;;28.20;77.20;;;;;;1904596;73;21162;-86
2022/02/08 15:46:52;;;;;;;48.30;34.27;;;28.20;77.50;;;;;;1895688;75;21203;-86
2022/02/08 15:49:23;;;;;;;50.55;32.75;;;28.20;77.50;;;;;;1872656;75;21563;-86
2022/02/08 15:52:06;;;;;;;43.73;33.20;;;28.20;77.30;;;;;;1876999;76;21189;-86
2022/02/08 15:54:37;;;;;;;43.40;32.65;;;28.20;77.30;;;;;;1896348;74;21203;-86
2022/02/08 16:07:58;;;;;;;48.73;34.35;;;28.10;77.00;;;;;;1913712;74;21211;-85
2022/02/08 16:10:05;;;;;;;46.68;33.70;;;28.10;76.90;;;;;;1896141;74;21996;-85
2022/02/08 16:12:46;;;;;;;43.28;34.05;;;28.10;76.60;;;;;;1903161;73;21519;-85
2022/02/08 16:20:28;;;;;;;43.78;34.08;;;28.00;77.00;;;;;;1901832;74;21664;-86
2022/02/08 16:28:24;;;;;;;44.73;33.23;;;28.00;77.00;;;;;;1902895;74;21180;-85
2022/02/08 16:31:18;;;;;;;45.30;33.80;;;28.00;77.00;;;;;;1911129;73;21100;-85
2022/02/08 16:46:22;;;;;;;48.42;34.80;;;28.00;77.70;;;;;;1900077;74;21168;-86
2022/02/08 16:58:53;;;;;;;44.50;33.98;;;27.70;78.60;;;;;;1893487;74;21651;-86
2022/02/08 17:01:26;;;;;;;46.70;35.98;;;27.60;79.00;;;;;;1882736;74;21086;-86
2022/02/08 17:03:53;;;;;;;51.02;36.95;;;27.60;79.40;;;;;;1901719;73;21178;-85
2022/02/08 17:06:29;;;;;;;44.60;34.53;;;27.60;79.00;;;;;;1906110;74;21112;-86
2022/02/08 17:09:12;;;;;;;45.95;33.20;;;27.60;78.50;;;;;;1913019;73;21122;-86
2022/02/08 17:11:45;;;;;;;37.75;30.62;;;27.50;78.20;;;;;;1913013;74;21169;-84
2022/02/08 17:45:19;;;;;;;40.35;30.95;;;27.40;76.00;;;;;;1906076;73;21697;-85
2022/02/08 17:49:59;;;;;;;41.53;33.25;;;27.40;75.90;;;;;;1898925;75;21588;-86
2022/02/08 17:52:31;;;;;;;43.28;32.45;;;27.40;75.80;;;;;;1901074;73;21128;-86
2022/02/08 17:55:02;;;;;;;37.83;32.80;;;27.30;75.90;;;;;;1884590;74;21242;-84
2022/02/08 17:57:35;;;;;;;44.35;33.30;;;27.20;76.00;;;;;;1916753;73;21096;-83
2022/02/08 18:00:10;;;;;;;40.58;31.80;;;27.20;76.30;;;;;;1907229;74;21105;-84
2022/02/08 18:02:43;;;;;;;49.35;32.65;;;27.10;76.40;;;;;;1901569;72;21112;-86
2022/02/08 18:05:15;;;;;;;40.88;32.13;;;27.10;76.60;;;;;;1904373;73;21219;-85
2022/02/08 18:07:46;;;;;;;44.18;33.23;;;27.00;76.90;;;;;;1922429;75;21088;-85
2022/02/08 18:10:22;;;;;;;46.65;38.05;;;27.00;77.50;;;;;;1919895;73;21136;-86
2022/02/08 18:12:56;;;;;;;47.35;38.35;;;26.90;79.70;;;;;;1890817;75;21612;-85
2022/02/08 18:15:27;;;;;;;53.70;40.60;;;26.80;81.00;;;;;;1902254;75;21169;-86
2022/02/08 18:18:06;;;;;;;51.83;41.15;;;26.80;82.10;;;;;;1899788;74;21123;-86
2022/02/08 18:20:47;;;;;;;56.48;42.35;;;26.70;83.00;;;;;;1894232;75;21217;-85
2022/02/08 18:25:55;;;;;;;51.33;41.53;;;26.60;83.00;;;;;;1904208;74;21183;-86
2022/02/08 18:28:23;;;;;;;55.05;42.13;;;26.60;83.40;;;;;;1897362;73;21532;-86
2022/02/08 19:16:41;;;;;;;52.00;41.77;;;26.10;84.30;;;;;;1891124;74;21134;-85
2022/02/08 19:21:43;;;;;;;58.63;42.03;;;26.00;84.60;;;;;;1898844;74;21194;-85
2022/02/08 19:24:08;;;;;;;54.42;41.20;;;25.90;84.90;;;;;;1899273;75;21110;-85
2022/02/08 19:26:39;;;;;;;55.48;41.70;;;25.90;84.70;;;;;;1899836;74;21249;-84
2022/02/08 19:29:14;;;;;;;54.48;41.73;;;25.90;85.20;;;;;;1900644;75;21120;-85
2022/02/08 19:31:45;;;;;;;58.15;43.55;;;25.80;85.40;;;;;;1876863;75;21203;-84
2022/02/08 19:34:17;;;;;;;56.30;43.85;;;25.80;85.00;;;;;;1900556;75;21120;-86
2022/02/08 19:36:55;;;;;;;58.05;43.10;;;25.80;85.10;;;;;;1847079;76;21171;-86
2022/02/08 19:39:23;;;;;;;57.75;44.15;;;25.70;84.70;;;;;;1892186;75;21210;-85
2022/02/08 19:41:54;;;;;;;59.98;44.55;;;25.70;84.80;;;;;;1902131;74;21633;-86
2022/02/08 19:44:33;;;;;;;54.53;45.85;;;25.70;85.00;;;;;;1903980;75;21608;-85
2022/02/08 19:47:02;;;;;;;57.05;44.65;;;25.60;85.10;;;;;;1896893;73;21754;-85
2022/02/08 19:49:34;;;;;;;59.03;45.48;;;25.60;85.10;;;;;;1901824;74;21674;-85
2022/02/08 19:52:06;;;;;;;53.98;42.65;;;25.60;84.80;;;;;;1911721;75;21143;-86
2022/02/08 19:54:51;;;;;;;56.85;44.27;;;25.60;85.10;;;;;;1913982;73;21187;-84
2022/02/08 19:57:18;;;;;;;52.95;44.03;;;25.50;84.90;;;;;;1900270;75;21157;-85
2022/02/08 19:59:45;;;;;;;56.90;45.03;;;25.60;84.80;;;;;;1901219;75;21177;-85
2022/02/08 20:02:17;;;;;;;62.88;46.42;;;25.50;84.80;;;;;;1912685;75;21112;-86
2022/02/08 20:04:49;;;;;;;53.28;43.92;;;25.50;85.00;;;;;;1918852;73;21554;-85
2022/02/08 20:07:20;;;;;;;59.00;46.60;;;25.50;84.80;;;;;;1934945;74;21756;-85
2022/02/08 20:09:51;;;;;;;58.70;44.18;;;25.40;84.60;;;;;;1926868;74;21243;-85
2022/02/08 20:12:23;;;;;;;59.90;45.78;;;25.40;84.60;;;;;;1892291;74;21113;-86
2022/02/08 20:14:56;;;;;;;56.35;44.45;;;25.40;84.50;;;;;;1891225;74;21196;-85
2022/02/08 20:17:27;;;;;;;63.17;45.12;;;25.40;84.50;;;;;;1897352;74;21587;-85
2022/02/08 20:20:03;;;;;;;56.58;45.48;;;25.40;84.20;;;;;;1880308;74;21611;-85
2022/02/08 20:22:30;;;;;;;51.30;43.70;;;25.40;84.10;;;;;;1921476;73;21155;-85
2022/02/08 20:25:04;;;;;;;57.03;44.05;;;25.40;84.20;;;;;;1916710;74;21084;-85
2022/02/08 20:30:08;;;;;;;53.85;44.73;;;25.30;83.70;;;;;;1917326;73;21093;-85
2022/02/08 20:32:38;;;;;;;63.35;44.55;;;25.30;83.20;;;;;;1899967;74;21159;-84
2022/02/08 20:35:09;;;;;;;52.73;42.98;;;25.30;82.90;;;;;;1900593;74;21203;-84
2022/02/08 20:37:41;;;;;;;53.87;43.85;;;25.30;83.10;;;;;;1906792;74;21115;-84
2022/02/08 20:40:13;;;;;;;53.38;42.85;;;25.30;83.00;;;;;;1919211;74;21258;-86
2022/02/08 20:42:44;;;;;;;51.75;43.92;;;25.30;82.80;;;;;;1894689;74;21193;-85
2022/02/08 20:45:15;;;;;;;51.40;43.33;;;25.40;82.90;;;;;;1914136;75;21636;-86
2022/02/08 20:47:47;;;;;;;49.75;42.43;;;25.40;82.80;;;;;;1914107;73;21598;-86
2022/02/08 20:50:20;;;;;;;54.45;41.58;;;25.40;82.30;;;;;;1928635;74;21112;-85